Terminal Aerodrome Forecast
Issued by NWS Jackson, KY

Home | Current Version | Previous Version | Text Only | Print | Product List | Glossary On
Versions: 1 2 3 4 5 6 7 8 9 10 11 12 13 14 15 16 17 18
800
FTUS43 KJKL 302127 AAB
TAFJKL
TAF AMD
KJKL 302127Z 3021/0118 25004KT 6SM BR BKN003
      TEMPO 3021/3023 SCT003 BKN030
     FM010100 19007KT 5SM -SHRA VCTS OVC020CB
     FM010600 00000KT 3SM -SHRA VCTS OVC030CB
     FM010900 00000KT 3SM -SHRA OVC035
     FM011300 VRB03KT P6SM VCSH BKN045=

USA.gov is the U.S. government's official web portal to all federal, state and local government web resources and services.